sensor_id;sensor_type;location;lat;lon;timestamp;pressure;altitude;pressure_sealevel;temperature;humidity
68654;BME280;55636;51.108;13.622;2023-08-20T00:00:34;100547.63;;;24.88;51.76
68654;BME280;55636;51.108;13.622;2023-08-20T00:01:37;100548.47;;;24.89;51.74
68654;BME280;55636;51.108;13.622;2023-08-20T00:02:45;100549.66;;;24.88;51.59
68654;BME280;55636;51.108;13.622;2023-08-20T00:03:49;100539.53;;;24.86;51.83
68654;BME280;55636;51.108;13.622;2023-08-20T00:04:53;100547.19;;;24.86;51.47
68654;BME280;55636;51.108;13.622;2023-08-20T00:05:57;100552.00;;;24.85;51.59
68654;BME280;55636;51.108;13.622;2023-08-20T00:06:59;100546.69;;;24.84;51.56
68654;BME280;55636;51.108;13.622;2023-08-20T00:08:02;100549.53;;;24.84;51.57
68654;BME280;55636;51.108;13.622;2023-08-20T00:09:04;100541.41;;;24.82;51.62
68654;BME280;55636;51.108;13.622;2023-08-20T00:10:09;100547.38;;;24.81;51.33
68654;BME280;55636;51.108;13.622;2023-08-20T00:11:12;100543.75;;;24.80;51.42
68654;BME280;55636;51.108;13.622;2023-08-20T00:12:15;100552.22;;;24.80;51.42
68654;BME280;55636;51.108;13.622;2023-08-20T00:13:18;100548.56;;;24.80;51.21
68654;BME280;55636;51.108;13.622;2023-08-20T00:14:20;100549.72;;;24.79;51.17
68654;BME280;55636;51.108;13.622;2023-08-20T00:15:23;100555.38;;;24.79;51.23
68654;BME280;55636;51.108;13.622;2023-08-20T00:16:28;100548.09;;;24.78;51.16
68654;BME280;55636;51.108;13.622;2023-08-20T00:18:35;100550.09;;;24.77;51.22
68654;BME280;55636;51.108;13.622;2023-08-20T00:19:40;100553.75;;;24.78;50.95
68654;BME280;55636;51.108;13.622;2023-08-20T00:20:43;100558.09;;;24.75;51.32
68654;BME280;55636;51.108;13.622;2023-08-20T00:21:47;100553.28;;;24.76;51.14
68654;BME280;55636;51.108;13.622;2023-08-20T00:22:50;100558.94;;;24.76;51.05
68654;BME280;55636;51.108;13.622;2023-08-20T00:23:53;100565.75;;;24.75;50.92
68654;BME280;55636;51.108;13.622;2023-08-20T00:24:55;100557.63;;;24.73;51.05
68654;BME280;55636;51.108;13.622;2023-08-20T00:25:58;100566.09;;;24.73;51.28
68654;BME280;55636;51.108;13.622;2023-08-20T00:27:01;100569.75;;;24.74;51.06
68654;BME280;55636;51.108;13.622;2023-08-20T00:28:04;100559.63;;;24.73;51.17
68654;BME280;55636;51.108;13.622;2023-08-20T00:29:06;100559.63;;;24.73;51.20
68654;BME280;55636;51.108;13.622;2023-08-20T00:30:10;100564.09;;;24.74;51.11
68654;BME280;55636;51.108;13.622;2023-08-20T00:31:13;100555.16;;;24.72;51.24
68654;BME280;55636;51.108;13.622;2023-08-20T00:32:17;100556.34;;;24.70;51.04
68654;BME280;55636;51.108;13.622;2023-08-20T00:33:19;100556.34;;;24.70;50.76
68654;BME280;55636;51.108;13.622;2023-08-20T00:34:21;100555.53;;;24.70;50.98
68654;BME280;55636;51.108;13.622;2023-08-20T00:35:24;100558.81;;;24.72;50.89
68654;BME280;55636;51.108;13.622;2023-08-20T00:36:26;100557.16;;;24.71;51.07
68654;BME280;55636;51.108;13.622;2023-08-20T00:37:29;100552.69;;;24.70;50.78
68654;BME280;55636;51.108;13.622;2023-08-20T00:38:33;100549.03;;;24.69;50.92
68654;BME280;55636;51.108;13.622;2023-08-20T00:39:36;100557.50;;;24.69;51.01
68654;BME280;55636;51.108;13.622;2023-08-20T00:40:39;100551.41;;;24.67;50.91
68654;BME280;55636;51.108;13.622;2023-08-20T00:41:41;100555.03;;;24.68;50.98
68654;BME280;55636;51.108;13.622;2023-08-20T00:42:43;100551.41;;;24.67;50.85
68654;BME280;55636;51.108;13.622;2023-08-20T00:43:46;100557.06;;;24.67;50.99
68654;BME280;55636;51.108;13.622;2023-08-20T00:44:48;100551.41;;;24.67;51.02
68654;BME280;55636;51.108;13.622;2023-08-20T00:45:50;100554.22;;;24.67;51.25
68654;BME280;55636;51.108;13.622;2023-08-20T00:46:53;100556.22;;;24.67;51.00
68654;BME280;55636;51.108;13.622;2023-08-20T00:47:56;100556.22;;;24.67;51.18
68654;BME280;55636;51.108;13.622;2023-08-20T00:48:59;100556.56;;;24.65;51.22
68654;BME280;55636;51.108;13.622;2023-08-20T00:50:02;100558.22;;;24.66;51.14
68654;BME280;55636;51.108;13.622;2023-08-20T00:51:08;100551.72;;;24.66;51.36
68654;BME280;55636;51.108;13.622;2023-08-20T00:52:11;100554.56;;;24.66;51.22
68654;BME280;55636;51.108;13.622;2023-08-20T00:53:14;100554.56;;;24.66;51.10
68654;BME280;55636;51.108;13.622;2023-08-20T00:54:17;100551.72;;;24.66;51.10
68654;BME280;55636;51.108;13.622;2023-08-20T00:55:19;100550.09;;;24.65;51.24
68654;BME280;55636;51.108;13.622;2023-08-20T00:56:22;100552.94;;;24.65;51.42
68654;BME280;55636;51.108;13.622;2023-08-20T00:57:24;100557.72;;;24.64;51.55
68654;BME280;55636;51.108;13.622;2023-08-20T00:58:28;100557.72;;;24.64;51.74
68654;BME280;55636;51.108;13.622;2023-08-20T00:59:32;100559.75;;;24.64;51.23
68654;BME280;55636;51.108;13.622;2023-08-20T01:00:35;100560.91;;;24.63;51.41
68654;BME280;55636;51.108;13.622;2023-08-20T01:01:38;100554.47;;;24.62;51.70
68654;BME280;55636;51.108;13.622;2023-08-20T01:02:40;100561.72;;;24.63;51.69
68654;BME280;55636;51.108;13.622;2023-08-20T01:03:45;100566.56;;;24.63;51.61
68654;BME280;55636;51.108;13.622;2023-08-20T01:04:48;100566.56;;;24.63;51.55
68654;BME280;55636;51.108;13.622;2023-08-20T01:05:59;100569.75;;;24.61;51.44
68654;BME280;55636;51.108;13.622;2023-08-20T01:08:36;100581.41;;;24.60;51.50
68654;BME280;55636;51.108;13.622;2023-08-20T01:10:19;100579.38;;;24.60;51.50
68654;BME280;55636;51.108;13.622;2023-08-20T01:11:36;100583.03;;;24.61;51.68
68654;BME280;55636;51.108;13.622;2023-08-20T01:12:41;100589.88;;;24.60;51.58
68654;BME280;55636;51.108;13.622;2023-08-20T01:13:43;100589.03;;;24.59;51.67
68654;BME280;55636;51.108;13.622;2023-08-20T01:14:46;100580.56;;;24.59;51.40
68654;BME280;55636;51.108;13.622;2023-08-20T01:15:48;100589.38;;;24.58;51.56
68654;BME280;55636;51.108;13.622;2023-08-20T01:16:51;100591.41;;;24.57;51.70
68654;BME280;55636;51.108;13.622;2023-08-20T01:17:53;100593.84;;;24.59;51.55
68654;BME280;55636;51.108;13.622;2023-08-20T01:18:56;100593.38;;;24.57;51.68
68654;BME280;55636;51.108;13.622;2023-08-20T01:19:58;100589.75;;;24.56;51.57
68654;BME280;55636;51.108;13.622;2023-08-20T01:21:06;100598.66;;;24.58;51.43
68654;BME280;55636;51.108;13.622;2023-08-20T01:27:10;100595.38;;;24.56;51.66
68654;BME280;55636;51.108;13.622;2023-08-20T01:28:30;100598.22;;;24.56;51.79
68654;BME280;55636;51.108;13.622;2023-08-20T01:29:33;100593.72;;;24.55;51.85
68654;BME280;55636;51.108;13.622;2023-08-20T01:30:38;100598.56;;;24.55;51.89
68654;BME280;55636;51.108;13.622;2023-08-20T01:31:40;100600.53;;;24.54;52.07
68654;BME280;55636;51.108;13.622;2023-08-20T01:32:44;100600.53;;;24.54;52.22
68654;BME280;55636;51.108;13.622;2023-08-20T01:33:48;100603.38;;;24.54;52.26
68654;BME280;55636;51.108;13.622;2023-08-20T01:34:52;100600.09;;;24.52;52.21
68654;BME280;55636;51.108;13.622;2023-08-20T01:35:54;100604.56;;;24.53;52.06
68654;BME280;55636;51.108;13.622;2023-08-20T01:36:57;100602.91;;;24.52;52.27
68654;BME280;55636;51.108;13.622;2023-08-20T01:37:59;100600.09;;;24.52;52.55
68654;BME280;55636;51.108;13.622;2023-08-20T01:39:02;100601.75;;;24.53;52.26
68654;BME280;55636;51.108;13.622;2023-08-20T01:40:07;100607.41;;;24.53;52.38
68654;BME280;55636;51.108;13.622;2023-08-20T01:41:13;100600.91;;;24.52;52.47
68654;BME280;55636;51.108;13.622;2023-08-20T01:42:15;100602.56;;;24.53;52.78
68654;BME280;55636;51.108;13.622;2023-08-20T01:43:18;100600.53;;;24.54;52.71
68654;BME280;55636;51.108;13.622;2023-08-20T01:44:20;100600.53;;;24.54;52.96
68654;BME280;55636;51.108;13.622;2023-08-20T01:45:23;100610.22;;;24.53;52.58
68654;BME280;55636;51.108;13.622;2023-08-20T01:46:25;100605.38;;;24.53;52.83
68654;BME280;55636;51.108;13.622;2023-08-20T01:47:28;100613.84;;;24.53;52.67
68654;BME280;55636;51.108;13.622;2023-08-20T01:48:30;100608.22;;;24.53;52.57
68654;BME280;55636;51.108;13.622;2023-08-20T01:49:32;100613.84;;;24.53;52.87
68654;BME280;55636;51.108;13.622;2023-08-20T01:50:36;100611.03;;;24.53;52.73
68654;BME280;55636;51.108;13.622;2023-08-20T01:51:39;100618.69;;;24.53;52.59
68654;BME280;55636;51.108;13.622;2023-08-20T01:52:41;100613.03;;;24.53;52.66
68654;BME280;55636;51.108;13.622;2023-08-20T01:53:43;100615.03;;;24.52;52.62
68654;BME280;55636;51.108;13.622;2023-08-20T01:54:48;100613.03;;;24.53;52.64
68654;BME280;55636;51.108;13.622;2023-08-20T01:55:50;100619.84;;;24.52;52.82
68654;BME280;55636;51.108;13.622;2023-08-20T01:56:53;100613.38;;;24.51;52.88
68654;BME280;55636;51.108;13.622;2023-08-20T01:57:55;100614.22;;;24.52;52.80
68654;BME280;55636;51.108;13.622;2023-08-20T01:58:57;100611.75;;;24.50;52.85
68654;BME280;55636;51.108;13.622;2023-08-20T02:00:00;100614.22;;;24.52;52.99
68654;BME280;55636;51.108;13.622;2023-08-20T02:01:14;100614.22;;;24.52;52.84
68654;BME280;55636;51.108;13.622;2023-08-20T02:02:17;100619.84;;;24.52;52.62
68654;BME280;55636;51.108;13.622;2023-08-20T02:03:19;100618.69;;;24.53;52.92
68654;BME280;55636;51.108;13.622;2023-08-20T02:04:22;100616.19;;;24.51;53.17
68654;BME280;55636;51.108;13.622;2023-08-20T02:05:24;100620.66;;;24.52;52.92
68654;BME280;55636;51.108;13.622;2023-08-20T02:06:27;100622.69;;;24.52;53.16
68654;BME280;55636;51.108;13.622;2023-08-20T02:07:30;100635.13;;;24.51;53.08
68654;BME280;55636;51.108;13.622;2023-08-20T02:08:34;100623.84;;;24.51;53.20
68654;BME280;55636;51.108;13.622;2023-08-20T02:09:36;100626.66;;;24.51;52.99
68654;BME280;55636;51.108;13.622;2023-08-20T02:10:39;100627.03;;;24.49;53.26
68654;BME280;55636;51.108;13.622;2023-08-20T02:11:41;100627.03;;;24.49;53.12
68654;BME280;55636;51.108;13.622;2023-08-20T02:12:44;100624.56;;;24.48;53.38
68654;BME280;55636;51.108;13.622;2023-08-20T02:13:46;100627.38;;;24.48;53.39
68654;BME280;55636;51.108;13.622;2023-08-20T02:14:49;100627.38;;;24.48;53.54
68654;BME280;55636;51.108;13.622;2023-08-20T02:16:03;100626.88;;;24.46;53.61
68654;BME280;55636;51.108;13.622;2023-08-20T02:17:07;100629.72;;;24.46;53.46
68654;BME280;55636;51.108;13.622;2023-08-20T02:18:10;100636.19;;;24.46;53.58
68654;BME280;55636;51.108;13.622;2023-08-20T02:19:13;100634.56;;;24.45;53.67
68654;BME280;55636;51.108;13.622;2023-08-20T02:20:16;100637.38;;;24.45;53.42
68654;BME280;55636;51.108;13.622;2023-08-20T02:21:18;100632.06;;;24.44;53.73
68654;BME280;55636;51.108;13.622;2023-08-20T02:22:21;100637.69;;;24.44;53.83
68654;BME280;55636;51.108;13.622;2023-08-20T02:23:23;100638.88;;;24.43;53.81
68654;BME280;55636;51.108;13.622;2023-08-20T02:24:26;100638.06;;;24.42;54.08
68654;BME280;55636;51.108;13.622;2023-08-20T02:25:28;100636.88;;;24.43;54.06
68654;BME280;55636;51.108;13.622;2023-08-20T02:26:31;100638.06;;;24.42;53.94
68654;BME280;55636;51.108;13.622;2023-08-20T02:27:33;100640.88;;;24.42;54.41
68654;BME280;55636;51.108;13.622;2023-08-20T02:28:36;100644.88;;;24.41;54.08
68654;BME280;55636;51.108;13.622;2023-08-20T02:29:39;100642.88;;;24.42;54.16
68654;BME280;55636;51.108;13.622;2023-08-20T02:30:43;100645.72;;;24.42;54.35
68654;BME280;55636;51.108;13.622;2023-08-20T02:31:46;100642.03;;;24.41;54.29
68654;BME280;55636;51.108;13.622;2023-08-20T02:32:50;100644.88;;;24.41;54.62
68654;BME280;55636;51.108;13.622;2023-08-20T02:33:53;100652.53;;;24.41;54.34
68654;BME280;55636;51.108;13.622;2023-08-20T02:34:56;100645.22;;;24.40;54.42
68654;BME280;55636;51.108;13.622;2023-08-20T02:36:04;100635.94;;;24.39;54.58
68654;BME280;55636;51.108;13.622;2023-08-20T02:37:06;100635.09;;;24.39;54.62
68654;BME280;55636;51.108;13.622;2023-08-20T02:38:09;100640.75;;;24.39;55.00
68654;BME280;55636;51.108;13.622;2023-08-20T02:39:13;100641.59;;;24.39;54.61
68654;BME280;55636;51.108;13.622;2023-08-20T02:40:16;100632.63;;;24.37;54.71
68654;BME280;55636;51.108;13.622;2023-08-20T02:41:18;100642.75;;;24.38;54.73
68654;BME280;55636;51.108;13.622;2023-08-20T02:42:21;100642.75;;;24.38;54.76
68654;BME280;55636;51.108;13.622;2023-08-20T02:43:23;100635.00;;;24.35;55.15
68654;BME280;55636;51.108;13.622;2023-08-20T02:44:26;100641.44;;;24.35;54.67
68654;BME280;55636;51.108;13.622;2023-08-20T02:45:29;100636.97;;;24.34;54.86
68654;BME280;55636;51.108;13.622;2023-08-20T02:46:31;100642.63;;;24.34;54.70
68654;BME280;55636;51.108;13.622;2023-08-20T02:47:33;100636.16;;;24.34;54.88
68654;BME280;55636;51.108;13.622;2023-08-20T02:48:36;100637.31;;;24.33;54.64
68654;BME280;55636;51.108;13.622;2023-08-20T02:49:39;100637.31;;;24.33;54.45
68654;BME280;55636;51.108;13.622;2023-08-20T02:50:41;100630.88;;;24.32;54.60
68654;BME280;55636;51.108;13.622;2023-08-20T02:51:43;100638.16;;;24.33;54.68
68654;BME280;55636;51.108;13.622;2023-08-20T02:52:46;100639.34;;;24.32;54.88
68654;BME280;55636;51.108;13.622;2023-08-20T02:53:48;100634.84;;;24.31;54.56
68654;BME280;55636;51.108;13.622;2023-08-20T02:54:51;100625.56;;;24.31;54.71
68654;BME280;55636;51.108;13.622;2023-08-20T02:55:54;100637.69;;;24.31;55.17
68654;BME280;55636;51.108;13.622;2023-08-20T02:56:56;100627.56;;;24.30;54.70
68654;BME280;55636;51.108;13.622;2023-08-20T02:57:59;100629.91;;;24.28;54.74
68654;BME280;55636;51.108;13.622;2023-08-20T02:59:01;100631.53;;;24.29;54.86
68654;BME280;55636;51.108;13.622;2023-08-20T03:00:04;100634.72;;;24.28;54.68
68654;BME280;55636;51.108;13.622;2023-08-20T03:01:07;100629.06;;;24.28;54.83
68654;BME280;55636;51.108;13.622;2023-08-20T03:02:19;100629.91;;;24.28;54.88
68654;BME280;55636;51.108;13.622;2023-08-20T03:03:21;100626.25;;;24.28;54.66
68654;BME280;55636;51.108;13.622;2023-08-20T03:04:24;100628.25;;;24.27;54.73
68654;BME280;55636;51.108;13.622;2023-08-20T03:05:26;100631.09;;;24.27;54.81
68654;BME280;55636;51.108;13.622;2023-08-20T03:06:28;100627.41;;;24.27;55.06
68654;BME280;55636;51.108;13.622;2023-08-20T03:07:31;100633.06;;;24.27;54.91
68654;BME280;55636;51.108;13.622;2023-08-20T03:08:34;100630.25;;;24.27;54.91
68654;BME280;55636;51.108;13.622;2023-08-20T03:09:37;100633.91;;;24.27;55.16
68654;BME280;55636;51.108;13.622;2023-08-20T03:10:39;100639.91;;;24.26;54.86
68654;BME280;55636;51.108;13.622;2023-08-20T03:11:42;100641.88;;;24.25;54.88
68654;BME280;55636;51.108;13.622;2023-08-20T03:12:45;100642.72;;;24.26;54.78
68654;BME280;55636;51.108;13.622;2023-08-20T03:13:47;100639.91;;;24.26;54.80
68654;BME280;55636;51.108;13.622;2023-08-20T03:14:49;100636.22;;;24.25;55.06
68654;BME280;55636;51.108;13.622;2023-08-20T03:15:52;100643.88;;;24.25;54.86
68654;BME280;55636;51.108;13.622;2023-08-20T03:16:54;100650.34;;;24.25;55.08
68654;BME280;55636;51.108;13.622;2023-08-20T03:17:56;100645.06;;;24.24;55.16
68654;BME280;55636;51.108;13.622;2023-08-20T03:18:59;100643.88;;;24.25;54.65
68654;BME280;55636;51.108;13.622;2023-08-20T03:20:01;100642.22;;;24.24;54.84
68654;BME280;55636;51.108;13.622;2023-08-20T03:21:08;100643.03;;;24.24;54.59
68654;BME280;55636;51.108;13.622;2023-08-20T03:22:10;100650.69;;;24.24;54.76
68654;BME280;55636;51.108;13.622;2023-08-20T03:23:12;100653.53;;;24.24;54.55
68654;BME280;55636;51.108;13.622;2023-08-20T03:24:15;100656.34;;;24.24;54.82
68654;BME280;55636;51.108;13.622;2023-08-20T03:25:17;100649.03;;;24.23;54.78
68654;BME280;55636;51.108;13.622;2023-08-20T03:26:20;100649.03;;;24.23;55.11
68654;BME280;55636;51.108;13.622;2023-08-20T03:27:22;100650.69;;;24.24;54.83
68654;BME280;55636;51.108;13.622;2023-08-20T03:28:25;100654.34;;;24.24;54.88
68654;BME280;55636;51.108;13.622;2023-08-20T03:29:28;100652.72;;;24.23;54.79
68654;BME280;55636;51.108;13.622;2023-08-20T03:30:30;100647.06;;;24.23;54.87
68654;BME280;55636;51.108;13.622;2023-08-20T03:31:33;100652.72;;;24.23;54.87
68654;BME280;55636;51.108;13.622;2023-08-20T03:32:36;100649.88;;;24.23;55.11
68654;BME280;55636;51.108;13.622;2023-08-20T03:33:38;100653.53;;;24.24;54.86
68654;BME280;55636;51.108;13.622;2023-08-20T03:34:41;100655.53;;;24.23;54.98
68654;BME280;55636;51.108;13.622;2023-08-20T03:35:44;100652.72;;;24.23;54.95
68654;BME280;55636;51.108;13.622;2023-08-20T03:36:47;100653.53;;;24.24;54.49
68654;BME280;55636;51.108;13.622;2023-08-20T03:37:49;100645.06;;;24.24;54.64
68654;BME280;55636;51.108;13.622;2023-08-20T03:38:52;100649.88;;;24.23;54.61
68654;BME280;55636;51.108;13.622;2023-08-20T03:39:56;100654.69;;;24.23;54.71
68654;BME280;55636;51.108;13.622;2023-08-20T03:40:58;100656.69;;;24.22;54.73
68654;BME280;55636;51.108;13.622;2023-08-20T03:42:00;100659.53;;;24.22;54.89
68654;BME280;55636;51.108;13.622;2023-08-20T03:43:03;100656.69;;;24.22;54.76
68654;BME280;55636;51.108;13.622;2023-08-20T03:44:05;100657.88;;;24.21;54.75
68654;BME280;55636;51.108;13.622;2023-08-20T03:45:08;100666.34;;;24.21;54.77
68654;BME280;55636;51.108;13.622;2023-08-20T03:46:11;100671.97;;;24.21;54.75
68654;BME280;55636;51.108;13.622;2023-08-20T03:47:13;100671.16;;;24.20;54.55
68654;BME280;55636;51.108;13.622;2023-08-20T03:48:16;100680.44;;;24.21;54.71
68654;BME280;55636;51.108;13.622;2023-08-20T03:49:19;100679.63;;;24.20;54.65
68654;BME280;55636;51.108;13.622;2023-08-20T03:50:21;100690.06;;;24.20;54.54
68654;BME280;55636;51.108;13.622;2023-08-20T03:51:24;100688.09;;;24.20;54.56
68654;BME280;55636;51.108;13.622;2023-08-20T03:52:26;100690.91;;;24.20;54.90
68654;BME280;55636;51.108;13.622;2023-08-20T03:53:28;100688.09;;;24.20;54.69
68654;BME280;55636;51.108;13.622;2023-08-20T03:54:31;100691.72;;;24.21;54.81
68654;BME280;55636;51.108;13.622;2023-08-20T03:55:33;100692.91;;;24.20;54.71
68654;BME280;55636;51.108;13.622;2023-08-20T03:56:35;100690.91;;;24.20;54.80
68654;BME280;55636;51.108;13.622;2023-08-20T03:57:38;100688.09;;;24.20;54.82
68654;BME280;55636;51.108;13.622;2023-08-20T03:58:41;100688.91;;;24.21;54.48
68654;BME280;55636;51.108;13.622;2023-08-20T03:59:44;100686.09;;;24.21;54.70
68654;BME280;55636;51.108;13.622;2023-08-20T04:00:48;100685.28;;;24.20;54.81
68654;BME280;55636;51.108;13.622;2023-08-20T04:01:50;100688.91;;;24.21;54.87
68654;BME280;55636;51.108;13.622;2023-08-20T04:02:52;100690.91;;;24.20;55.03
68654;BME280;55636;51.108;13.622;2023-08-20T04:03:55;100684.44;;;24.20;54.86
68654;BME280;55636;51.108;13.622;2023-08-20T04:04:58;100681.59;;;24.20;55.28
68654;BME280;55636;51.108;13.622;2023-08-20T04:06:02;100677.13;;;24.19;55.26
68654;BME280;55636;51.108;13.622;2023-08-20T04:07:04;100677.97;;;24.19;55.06
68654;BME280;55636;51.108;13.622;2023-08-20T04:08:06;100689.59;;;24.18;55.36
68654;BME280;55636;51.108;13.622;2023-08-20T04:09:09;100689.59;;;24.18;55.24
68654;BME280;55636;51.108;13.622;2023-08-20T04:10:11;100701.72;;;24.18;55.64
68654;BME280;55636;51.108;13.622;2023-08-20T04:11:14;100702.53;;;24.19;55.11
68654;BME280;55636;51.108;13.622;2023-08-20T04:12:16;100707.66;;;24.17;55.39
68654;BME280;55636;51.108;13.622;2023-08-20T04:13:19;100718.97;;;24.17;55.31
68654;BME280;55636;51.108;13.622;2023-08-20T04:14:22;100711.66;;;24.16;55.75
68654;BME280;55636;51.108;13.622;2023-08-20T04:15:24;100710.00;;;24.15;55.49
68654;BME280;55636;51.108;13.622;2023-08-20T04:16:28;100714.47;;;24.16;55.28
68654;BME280;55636;51.108;13.622;2023-08-20T04:17:31;100710.84;;;24.15;55.63
68654;BME280;55636;51.108;13.622;2023-08-20T04:18:34;100710.84;;;24.15;55.33
68654;BME280;55636;51.108;13.622;2023-08-20T04:19:36;100709.19;;;24.14;55.58
68654;BME280;55636;51.108;13.622;2023-08-20T04:20:39;100707.19;;;24.15;55.48
68654;BME280;55636;51.108;13.622;2023-08-20T04:21:41;100708.34;;;24.14;55.74
68654;BME280;55636;51.108;13.622;2023-08-20T04:22:44;100714.84;;;24.14;55.63
68654;BME280;55636;51.108;13.622;2023-08-20T04:23:48;100719.63;;;24.14;55.71
68654;BME280;55636;51.108;13.622;2023-08-20T04:24:50;100715.19;;;24.13;55.68
68654;BME280;55636;51.108;13.622;2023-08-20T04:25:52;100713.19;;;24.13;55.38
68654;BME280;55636;51.108;13.622;2023-08-20T04:26:55;100717.16;;;24.12;55.65
68654;BME280;55636;51.108;13.622;2023-08-20T04:28:01;100719.97;;;24.12;55.77
68654;BME280;55636;51.108;13.622;2023-08-20T04:29:04;100713.53;;;24.12;55.75
68654;BME280;55636;51.108;13.622;2023-08-20T04:30:07;100722.00;;;24.12;56.01
68654;BME280;55636;51.108;13.622;2023-08-20T04:31:09;100722.81;;;24.12;55.87
68654;BME280;55636;51.108;13.622;2023-08-20T04:32:22;100726.81;;;24.11;56.06
68654;BME280;55636;51.108;13.622;2023-08-20T04:33:24;100728.78;;;24.11;55.68
68654;BME280;55636;51.108;13.622;2023-08-20T04:34:27;100730.81;;;24.10;55.96
68654;BME280;55636;51.108;13.622;2023-08-20T04:35:30;100725.50;;;24.09;55.81
68654;BME280;55636;51.108;13.622;2023-08-20T04:36:33;100733.97;;;24.09;55.68
68654;BME280;55636;51.108;13.622;2023-08-20T04:37:35;100737.97;;;24.08;56.01
68654;BME280;55636;51.108;13.622;2023-08-20T04:38:38;100733.13;;;24.08;55.72
68654;BME280;55636;51.108;13.622;2023-08-20T04:39:40;100729.50;;;24.08;56.20
68654;BME280;55636;51.108;13.622;2023-08-20T04:40:46;100737.13;;;24.07;56.23
68654;BME280;55636;51.108;13.622;2023-08-20T04:41:48;100743.59;;;24.08;55.99
68654;BME280;55636;51.108;13.622;2023-08-20T04:42:53;100741.94;;;24.07;55.93
68654;BME280;55636;51.108;13.622;2023-08-20T04:43:55;100738.31;;;24.06;55.98
68654;BME280;55636;51.108;13.622;2023-08-20T04:45:00;100746.78;;;24.06;56.04
68654;BME280;55636;51.108;13.622;2023-08-20T04:46:03;100740.28;;;24.06;56.15
68654;BME280;55636;51.108;13.622;2023-08-20T04:47:11;100747.09;;;24.04;55.98
68654;BME280;55636;51.108;13.622;2023-08-20T04:48:13;100745.94;;;24.06;55.91
68654;BME280;55636;51.108;13.622;2023-08-20T04:49:16;100743.13;;;24.06;55.79
68654;BME280;55636;51.108;13.622;2023-08-20T04:50:18;100745.94;;;24.06;56.05
68654;BME280;55636;51.108;13.622;2023-08-20T04:51:23;100746.78;;;24.06;56.33
68654;BME280;55636;51.108;13.622;2023-08-20T04:52:26;100748.75;;;24.06;56.25
68654;BME280;55636;51.108;13.622;2023-08-20T04:53:28;100740.28;;;24.06;56.28
68654;BME280;55636;51.108;13.622;2023-08-20T04:54:31;100740.28;;;24.06;56.57
68654;BME280;55636;51.108;13.622;2023-08-20T04:55:33;100745.94;;;24.06;56.09
68654;BME280;55636;51.108;13.622;2023-08-20T04:56:36;100740.28;;;24.06;56.25
68654;BME280;55636;51.108;13.622;2023-08-20T04:57:38;100746.78;;;24.06;56.23
68654;BME280;55636;51.108;13.622;2023-08-20T04:58:41;100738.31;;;24.06;56.31
68654;BME280;55636;51.108;13.622;2023-08-20T04:59:44;100743.97;;;24.06;56.47
68654;BME280;55636;51.108;13.622;2023-08-20T05:01:06;100743.59;;;24.08;56.42
68654;BME280;55636;51.108;13.622;2023-08-20T05:02:09;100748.09;;;24.09;56.75
68654;BME280;55636;51.108;13.622;2023-08-20T05:03:18;100749.72;;;24.10;56.49
68654;BME280;55636;51.108;13.622;2023-08-20T05:04:20;100755.03;;;24.11;56.49
68654;BME280;55636;51.108;13.622;2023-08-20T05:05:23;100751.03;;;24.12;56.87
68654;BME280;55636;51.108;13.622;2023-08-20T05:06:25;100745.03;;;24.14;56.70
68654;BME280;55636;51.108;13.622;2023-08-20T05:07:27;100747.53;;;24.15;56.60
68654;BME280;55636;51.108;13.622;2023-08-20T05:08:30;100755.66;;;24.17;56.67
68654;BME280;55636;51.108;13.622;2023-08-20T05:09:32;100747.69;;;24.19;56.49
68654;BME280;55636;51.108;13.622;2023-08-20T05:10:36;100753.31;;;24.19;56.57
68654;BME280;55636;51.108;13.622;2023-08-20T05:11:39;100756.63;;;24.21;56.78
68654;BME280;55636;51.108;13.622;2023-08-20T05:12:41;100750.63;;;24.23;56.64
68654;BME280;55636;51.108;13.622;2023-08-20T05:13:45;100758.75;;;24.24;56.76
68654;BME280;55636;51.108;13.622;2023-08-20T05:14:48;100751.59;;;24.27;56.64
68654;BME280;55636;51.108;13.622;2023-08-20T05:15:50;100755.72;;;24.29;56.89
68654;BME280;55636;51.108;13.622;2023-08-20T05:16:52;100756.22;;;24.31;56.83
68654;BME280;55636;51.108;13.622;2023-08-20T05:17:55;100757.19;;;24.35;57.14
68654;BME280;55636;51.108;13.622;2023-08-20T05:18:58;100755.31;;;24.40;57.00
68654;BME280;55636;51.108;13.622;2023-08-20T05:20:00;100765.94;;;24.43;56.92
68654;BME280;55636;51.108;13.622;2023-08-20T05:21:03;100767.69;;;24.47;56.86
68654;BME280;55636;51.108;13.622;2023-08-20T05:22:06;100763.84;;;24.52;57.10
68654;BME280;55636;51.108;13.622;2023-08-20T05:23:10;100777.75;;;24.57;56.64
68654;BME280;55636;51.108;13.622;2023-08-20T05:24:12;100770.22;;;24.61;56.74
68654;BME280;55636;51.108;13.622;2023-08-20T05:25:14;100768.00;;;24.67;56.80
68654;BME280;55636;51.108;13.622;2023-08-20T05:26:17;100769.81;;;24.72;56.61
68654;BME280;55636;51.108;13.622;2023-08-20T05:27:20;100775.25;;;24.77;56.65
68654;BME280;55636;51.108;13.622;2023-08-20T05:28:25;100768.53;;;24.81;56.48
68654;BME280;55636;51.108;13.622;2023-08-20T05:29:28;100778.47;;;24.88;56.44
68654;BME280;55636;51.108;13.622;2023-08-20T05:30:30;100768.13;;;24.92;56.19
68654;BME280;55636;51.108;13.622;2023-08-20T05:31:33;100772.72;;;24.96;55.92
68654;BME280;55636;51.108;13.622;2023-08-20T05:32:36;100770.84;;;25.00;55.83
68654;BME280;55636;51.108;13.622;2023-08-20T05:33:38;100772.16;;;25.03;55.88
68654;BME280;55636;51.108;13.622;2023-08-20T05:34:41;100775.13;;;25.07;55.72